Time;durP1;ratioP1;P1;durP2;ratioP2;P2;SDS_P1;SDS_P2;PMS_P1;PMS_P2;Temp;Humidity;BMP_temperature;BMP_pressure;BME280_temperature;BME280_humidity;BME280_pressure;Samples;Min_cycle;Max_cycle;Signal;HPM_P1;HPM_P2
2021/09/07 00:00:44;;;;;;;0.60;0.60;;;17.30;99.90;;;;;;4396898;32;20162;-65
2021/09/07 00:03:10;;;;;;;1.25;1.12;;;17.30;99.90;;;;;;4399470;32;20086;-65
2021/09/07 00:05:35;;;;;;;0.80;0.68;;;17.20;99.90;;;;;;4400489;32;20074;-65
2021/09/07 00:08:01;;;;;;;1.42;0.52;;;17.20;99.90;;;;;;4386416;32;20070;-65
2021/09/07 00:10:26;;;;;;;3.65;1.20;;;17.20;99.90;;;;;;4385841;32;20498;-65
2021/09/07 00:12:52;;;;;;;0.47;0.47;;;17.10;99.90;;;;;;4390921;32;20081;-65
2021/09/07 00:15:19;;;;;;;1.35;0.77;;;17.10;99.90;;;;;;4389954;32;20075;-65
2021/09/07 00:17:45;;;;;;;2.45;0.75;;;17.10;99.90;;;;;;4385331;32;20381;-65
2021/09/07 00:20:11;;;;;;;5.05;0.55;;;17.20;99.90;;;;;;4385667;32;20067;-65
2021/09/07 00:22:37;;;;;;;0.88;0.70;;;17.20;99.90;;;;;;4386716;32;20082;-65
2021/09/07 00:25:05;;;;;;;2.55;1.27;;;17.10;99.90;;;;;;4394542;32;20389;-65
2021/09/07 00:27:30;;;;;;;1.33;0.68;;;17.30;99.90;;;;;;4394733;32;20116;-65
2021/09/07 00:29:56;;;;;;;2.20;1.30;;;17.20;99.90;;;;;;4388929;32;20070;-65
2021/09/07 00:32:22;;;;;;;2.67;1.12;;;17.20;99.90;;;;;;4394900;32;20074;-65
2021/09/07 00:34:47;;;;;;;0.75;0.62;;;17.20;99.90;;;;;;4395542;32;20121;-65
2021/09/07 00:37:13;;;;;;;0.30;0.30;;;17.10;99.90;;;;;;4385469;32;20070;-65
2021/09/07 00:39:38;;;;;;;2.20;0.93;;;17.10;99.90;;;;;;4386003;32;20074;-65
2021/09/07 00:42:04;;;;;;;2.90;0.85;;;17.10;99.90;;;;;;4385765;32;20089;-65
2021/09/07 00:44:29;;;;;;;0.90;0.82;;;17.10;99.90;;;;;;4385659;32;20071;-65
2021/09/07 00:46:57;;;;;;;0.60;0.60;;;17.00;99.90;;;;;;4388231;32;20119;-64
2021/09/07 00:49:24;;;;;;;3.22;0.93;;;17.10;99.90;;;;;;4387840;32;20069;-64
2021/09/07 00:51:51;;;;;;;1.65;0.80;;;17.10;99.90;;;;;;4398544;32;20074;-65
2021/09/07 00:54:19;;;;;;;0.90;0.68;;;17.10;99.90;;;;;;4398816;32;20062;-65
2021/09/07 00:56:46;;;;;;;0.37;0.37;;;17.10;99.90;;;;;;4396603;32;20069;-65
2021/09/07 00:59:13;;;;;;;0.50;0.50;;;17.10;99.90;;;;;;4389379;32;20392;-65
2021/09/07 01:01:40;;;;;;;0.70;0.70;;;17.00;99.90;;;;;;4390919;32;20438;-65
2021/09/07 01:04:06;;;;;;;1.20;0.40;;;17.10;99.90;;;;;;4382922;32;20091;-64
2021/09/07 01:06:33;;;;;;;1.92;0.77;;;17.10;99.90;;;;;;4388717;32;20143;-64
2021/09/07 01:08:59;;;;;;;3.35;0.80;;;17.10;99.90;;;;;;4399743;32;20309;-66
2021/09/07 01:11:24;;;;;;;3.12;0.93;;;17.10;99.90;;;;;;4399691;32;20480;-65
2021/09/07 01:13:50;;;;;;;2.70;0.65;;;17.10;99.90;;;;;;4397085;32;20069;-65
2021/09/07 01:16:16;;;;;;;1.45;0.98;;;17.10;99.90;;;;;;4386236;32;20069;-65
2021/09/07 01:18:41;;;;;;;0.43;0.43;;;17.00;99.90;;;;;;4384803;32;20489;-65
2021/09/07 01:21:12;;;;;;;1.40;0.62;;;17.10;99.90;;;;;;4384966;32;20147;-65
2021/09/07 01:23:41;;;;;;;1.62;1.08;;;17.10;99.90;;;;;;4388532;32;20133;-64
2021/09/07 01:26:07;;;;;;;0.50;0.50;;;17.00;99.90;;;;;;4393587;32;20067;-65
2021/09/07 01:28:33;;;;;;;1.58;0.50;;;16.90;99.90;;;;;;4389713;32;20090;-65
2021/09/07 01:30:59;;;;;;;2.10;1.00;;;16.90;99.90;;;;;;4391584;32;20066;-64
2021/09/07 01:33:25;;;;;;;1.00;0.80;;;16.80;99.90;;;;;;4393940;32;20062;-65
2021/09/07 01:35:54;;;;;;;0.50;0.50;;;16.80;99.90;;;;;;4390922;32;20066;-65
2021/09/07 01:38:20;;;;;;;1.33;0.90;;;16.90;99.90;;;;;;4386296;32;20082;-65
2021/09/07 01:40:45;;;;;;;1.23;1.12;;;16.90;99.90;;;;;;4385162;32;20097;-65
2021/09/07 01:43:15;;;;;;;0.70;0.70;;;16.90;99.90;;;;;;4384967;32;20125;-65
2021/09/07 01:45:42;;;;;;;1.37;0.95;;;16.80;99.90;;;;;;4384932;32;20066;-65
2021/09/07 01:48:08;;;;;;;3.92;1.10;;;16.80;99.90;;;;;;4385680;32;20086;-65
2021/09/07 01:50:33;;;;;;;4.70;0.90;;;16.80;99.90;;;;;;4393877;32;20079;-65
2021/09/07 01:52:59;;;;;;;0.50;0.50;;;16.80;99.90;;;;;;4400793;32;20476;-64
2021/09/07 01:55:24;;;;;;;0.70;0.70;;;16.70;99.90;;;;;;4397367;32;20077;-65
2021/09/07 01:57:50;;;;;;;1.05;0.70;;;16.70;99.90;;;;;;4394497;32;20066;-65
2021/09/07 02:00:16;;;;;;;0.52;0.52;;;16.70;99.90;;;;;;4384849;32;20070;-65
2021/09/07 02:02:41;;;;;;;0.75;0.73;;;16.70;99.90;;;;;;4388034;32;20082;-65
2021/09/07 02:05:07;;;;;;;0.88;0.70;;;16.70;99.90;;;;;;4385490;32;20058;-65
2021/09/07 02:07:32;;;;;;;1.95;1.17;;;16.60;99.90;;;;;;4396576;32;20167;-65
2021/09/07 02:09:58;;;;;;;1.98;1.30;;;16.50;99.90;;;;;;4399964;32;20423;-65
2021/09/07 02:12:23;;;;;;;1.58;1.08;;;16.40;99.90;;;;;;4396931;32;20085;-65
2021/09/07 02:14:50;;;;;;;0.73;0.73;;;16.30;99.90;;;;;;4392160;32;20546;-65
2021/09/07 02:17:16;;;;;;;0.80;0.77;;;16.30;99.90;;;;;;4385672;32;20085;-65
2021/09/07 02:19:41;;;;;;;1.75;1.27;;;16.30;99.90;;;;;;4383783;32;20079;-65
2021/09/07 02:22:06;;;;;;;0.98;0.55;;;16.40;99.90;;;;;;4384877;32;20506;-65
2021/09/07 02:24:32;;;;;;;0.73;0.70;;;16.30;99.90;;;;;;4388546;32;20077;-65
2021/09/07 02:26:57;;;;;;;1.65;0.70;;;16.20;99.90;;;;;;4397101;32;20404;-65
2021/09/07 02:29:23;;;;;;;0.70;0.70;;;16.20;99.90;;;;;;4385504;32;20075;-65
2021/09/07 02:31:48;;;;;;;2.10;0.68;;;16.20;99.90;;;;;;4394545;32;20069;-65
2021/09/07 02:34:14;;;;;;;0.70;0.70;;;16.10;99.90;;;;;;4394479;32;20065;-66
2021/09/07 02:36:41;;;;;;;0.57;0.57;;;16.00;99.90;;;;;;4385260;32;20084;-65
2021/09/07 02:39:07;;;;;;;1.48;0.60;;;16.00;99.90;;;;;;4379282;32;20079;-65
2021/09/07 02:41:32;;;;;;;2.67;0.70;;;16.00;99.90;;;;;;4384685;32;20073;-65
2021/09/07 02:43:58;;;;;;;1.10;0.98;;;16.00;99.90;;;;;;4383528;32;20062;-66
2021/09/07 02:46:25;;;;;;;0.50;0.50;;;15.90;99.90;;;;;;4386226;32;20059;-66
2021/09/07 02:48:51;;;;;;;6.87;2.35;;;15.90;99.90;;;;;;4384000;32;20078;-66
2021/09/07 02:51:17;;;;;;;0.60;0.60;;;15.90;99.90;;;;;;4397199;32;20085;-66
2021/09/07 02:53:42;;;;;;;3.42;1.20;;;15.80;99.90;;;;;;4397099;32;20164;-66
2021/09/07 02:56:08;;;;;;;3.62;1.35;;;15.70;99.90;;;;;;4395601;32;20519;-66
2021/09/07 02:58:33;;;;;;;1.10;0.62;;;15.70;99.90;;;;;;4391963;32;20070;-66
2021/09/07 03:00:59;;;;;;;0.85;0.73;;;15.70;99.90;;;;;;4389313;32;20070;-66
2021/09/07 03:03:24;;;;;;;2.58;0.73;;;15.70;99.90;;;;;;4383197;32;20066;-65
2021/09/07 03:05:50;;;;;;;1.92;0.68;;;15.70;99.90;;;;;;4385235;32;20090;-66
2021/09/07 03:08:15;;;;;;;0.65;0.65;;;15.50;99.90;;;;;;4396833;32;20082;-66
2021/09/07 03:10:41;;;;;;;0.82;0.80;;;15.50;99.90;;;;;;4399050;32;20073;-66
2021/09/07 03:13:06;;;;;;;6.00;1.55;;;15.50;99.90;;;;;;4395670;32;20104;-66
2021/09/07 03:15:32;;;;;;;2.10;0.90;;;15.50;99.90;;;;;;4387434;32;20520;-66
2021/09/07 03:17:57;;;;;;;1.00;0.80;;;15.50;99.90;;;;;;4385729;32;20062;-66
2021/09/07 03:20:23;;;;;;;2.05;0.95;;;15.40;99.90;;;;;;4383886;32;20081;-66
2021/09/07 03:22:48;;;;;;;2.05;1.05;;;15.40;99.90;;;;;;4378012;32;20461;-66
2021/09/07 03:25:14;;;;;;;0.55;0.55;;;15.40;99.90;;;;;;4393209;32;20085;-65
2021/09/07 03:27:39;;;;;;;1.17;0.95;;;15.40;99.90;;;;;;4391684;32;20135;-66
2021/09/07 03:30:06;;;;;;;6.03;1.20;;;15.30;99.90;;;;;;4388729;32;20069;-66
2021/09/07 03:32:31;;;;;;;1.58;0.90;;;15.30;99.90;;;;;;4391282;32;20081;-66
2021/09/07 03:34:57;;;;;;;0.80;0.80;;;15.30;99.90;;;;;;4391978;32;20083;-66
2021/09/07 03:37:22;;;;;;;2.90;1.48;;;15.30;99.90;;;;;;4383097;32;20080;-66
2021/09/07 03:39:47;;;;;;;1.48;1.10;;;15.30;99.90;;;;;;4383873;32;20087;-66
2021/09/07 03:42:13;;;;;;;0.55;0.47;;;15.30;99.90;;;;;;4382719;32;20058;-66
2021/09/07 03:44:38;;;;;;;2.72;1.48;;;15.30;99.90;;;;;;4383792;32;20094;-66
2021/09/07 03:47:04;;;;;;;2.87;1.15;;;15.20;99.90;;;;;;4386072;32;20139;-66
2021/09/07 03:49:29;;;;;;;0.50;0.50;;;15.20;99.90;;;;;;4386552;32;20085;-66
2021/09/07 03:51:55;;;;;;;1.10;1.00;;;15.20;99.90;;;;;;4397809;32;20066;-66
2021/09/07 03:54:21;;;;;;;0.50;0.50;;;15.00;99.90;;;;;;4395796;32;20098;-66
2021/09/07 03:56:46;;;;;;;0.73;0.73;;;15.00;99.90;;;;;;4393605;32;20061;-66
2021/09/07 03:59:12;;;;;;;0.77;0.75;;;14.90;99.90;;;;;;4386105;32;20074;-66
2021/09/07 04:01:37;;;;;;;2.20;1.48;;;15.00;99.90;;;;;;4378412;32;20402;-66
2021/09/07 04:04:03;;;;;;;1.80;0.95;;;15.00;99.90;;;;;;4368658;32;20091;-66
2021/09/07 04:06:28;;;;;;;7.10;1.08;;;15.00;99.90;;;;;;4377650;32;20090;-66
2021/09/07 04:08:54;;;;;;;0.60;0.60;;;14.90;99.90;;;;;;4397477;32;20070;-66
2021/09/07 04:11:19;;;;;;;0.82;0.60;;;14.80;99.90;;;;;;4388815;32;20082;-65
2021/09/07 04:13:45;;;;;;;1.17;0.93;;;14.80;99.90;;;;;;4395086;32;20066;-66
2021/09/07 04:16:10;;;;;;;0.40;0.40;;;14.80;99.90;;;;;;4383500;32;20070;-66
2021/09/07 04:18:36;;;;;;;1.00;0.60;;;14.80;99.90;;;;;;4367611;32;20437;-66
2021/09/07 04:21:01;;;;;;;0.60;0.60;;;14.80;99.90;;;;;;4369175;32;20063;-66
2021/09/07 04:23:27;;;;;;;3.10;0.77;;;14.80;99.90;;;;;;4397446;32;20412;-66
2021/09/07 04:25:52;;;;;;;1.92;1.17;;;14.80;99.90;;;;;;4387405;32;20114;-66
2021/09/07 04:28:18;;;;;;;0.93;0.70;;;14.90;99.90;;;;;;4380530;32;20082;-66
2021/09/07 04:30:43;;;;;;;7.75;1.08;;;14.90;99.90;;;;;;4384891;32;20174;-66
2021/09/07 04:33:09;;;;;;;1.55;1.00;;;14.80;99.90;;;;;;4381187;32;20523;-66
2021/09/07 04:35:34;;;;;;;3.33;0.75;;;14.70;99.90;;;;;;4383748;32;20075;-66
2021/09/07 04:37:59;;;;;;;1.45;1.00;;;14.70;99.90;;;;;;4381945;32;20083;-66
2021/09/07 04:40:25;;;;;;;0.93;0.70;;;14.70;99.90;;;;;;4370756;32;20515;-66
2021/09/07 04:42:50;;;;;;;0.80;0.80;;;14.70;99.90;;;;;;4370132;32;20099;-66
2021/09/07 04:45:16;;;;;;;0.90;0.90;;;14.70;99.90;;;;;;4370243;32;20119;-66
2021/09/07 04:47:41;;;;;;;2.60;1.10;;;14.70;99.90;;;;;;4388976;32;20114;-65
2021/09/07 04:50:08;;;;;;;5.12;1.02;;;14.70;99.90;;;;;;4392329;32;20079;-65
2021/09/07 04:52:33;;;;;;;9.65;1.33;;;14.70;99.90;;;;;;4383457;32;20515;-65
2021/09/07 04:54:59;;;;;;;1.65;1.08;;;14.70;99.90;;;;;;4385502;32;20117;-66
2021/09/07 04:57:24;;;;;;;2.65;0.85;;;14.80;99.90;;;;;;4389464;32;20106;-66
2021/09/07 04:59:50;;;;;;;3.92;1.70;;;14.90;99.90;;;;;;4386457;32;20142;-66
2021/09/07 05:02:16;;;;;;;3.25;1.27;;;14.80;99.90;;;;;;4384069;32;20086;-66
2021/09/07 05:04:42;;;;;;;3.15;1.08;;;14.90;99.90;;;;;;4380934;32;20065;-66
2021/09/07 05:07:07;;;;;;;1.33;0.90;;;15.00;99.90;;;;;;4375498;32;20508;-66
2021/09/07 05:09:33;;;;;;;4.62;1.23;;;15.00;99.90;;;;;;4383913;32;20450;-66
2021/09/07 05:11:58;;;;;;;3.92;1.05;;;15.10;99.90;;;;;;4380939;32;20067;-66
2021/09/07 05:14:24;;;;;;;2.35;0.80;;;15.20;99.90;;;;;;4380964;32;20137;-66
2021/09/07 05:16:49;;;;;;;5.78;1.08;;;15.20;99.90;;;;;;4376028;32;20086;-65
2021/09/07 05:19:16;;;;;;;2.28;0.90;;;15.20;99.90;;;;;;4382230;32;20069;-65
2021/09/07 05:21:42;;;;;;;1.55;0.80;;;15.10;99.90;;;;;;4395388;32;20075;-66
2021/09/07 05:24:07;;;;;;;1.17;0.80;;;15.10;99.90;;;;;;4394124;32;20087;-66
2021/09/07 05:26:33;;;;;;;1.75;0.90;;;15.20;99.90;;;;;;4379547;32;20086;-65
2021/09/07 05:28:58;;;;;;;1.35;1.15;;;15.30;99.90;;;;;;4383739;32;20503;-66
2021/09/07 05:31:24;;;;;;;2.05;1.12;;;15.30;99.90;;;;;;4374643;32;20492;-66
2021/09/07 05:33:49;;;;;;;1.87;1.02;;;15.40;99.90;;;;;;4379493;32;20078;-66
2021/09/07 05:36:15;;;;;;;1.10;0.70;;;15.40;99.90;;;;;;4379031;32;20090;-66
2021/09/07 05:38:41;;;;;;;0.60;0.60;;;15.50;99.90;;;;;;4381317;32;20065;-65
2021/09/07 05:41:06;;;;;;;1.55;0.55;;;15.50;99.90;;;;;;4381578;32;20078;-66
2021/09/07 05:43:32;;;;;;;0.80;0.80;;;15.60;99.90;;;;;;4379873;32;20082;-66
2021/09/07 05:45:57;;;;;;;1.20;1.10;;;15.50;99.90;;;;;;4377017;32;20410;-67
2021/09/07 05:48:23;;;;;;;0.90;0.68;;;15.50;99.90;;;;;;4377977;32;20082;-66
2021/09/07 05:50:48;;;;;;;1.83;0.98;;;15.50;99.90;;;;;;4378582;32;20130;-67
2021/09/07 05:53:14;;;;;;;0.85;0.65;;;15.60;99.90;;;;;;4374407;32;20133;-65
2021/09/07 05:55:39;;;;;;;2.95;1.00;;;15.50;99.90;;;;;;4370656;32;20483;-67
2021/09/07 05:58:05;;;;;;;2.05;1.23;;;15.60;99.90;;;;;;4370970;32;20107;-67
2021/09/07 06:00:31;;;;;;;3.80;0.95;;;15.60;99.90;;;;;;4373751;32;20562;-66
2021/09/07 06:02:58;;;;;;;0.98;0.88;;;15.70;99.90;;;;;;4368786;32;20089;-65
2021/09/07 06:05:24;;;;;;;0.57;0.57;;;15.70;99.90;;;;;;4371959;32;20663;-66
2021/09/07 06:07:49;;;;;;;1.45;0.95;;;15.70;99.90;;;;;;4371560;32;20082;-66
2021/09/07 06:10:15;;;;;;;1.35;0.80;;;15.60;99.90;;;;;;4372938;32;20378;-66
2021/09/07 06:12:40;;;;;;;0.88;0.70;;;15.70;99.90;;;;;;4372879;32;21030;-65
2021/09/07 06:15:07;;;;;;;0.68;0.60;;;15.70;99.90;;;;;;4371316;32;20535;-66
2021/09/07 06:17:33;;;;;;;11.30;1.58;;;15.60;99.90;;;;;;4370854;32;20089;-66
2021/09/07 06:19:58;;;;;;;3.75;0.93;;;15.60;99.90;;;;;;4370188;32;20130;-66
2021/09/07 06:22:24;;;;;;;1.10;1.00;;;15.60;99.90;;;;;;4368451;32;77372;-66
2021/09/07 06:24:52;;;;;;;1.83;1.30;;;15.60;99.90;;;;;;4376282;32;20074;-66
2021/09/07 06:27:18;;;;;;;1.33;0.93;;;15.70;99.90;;;;;;4377016;32;20189;-66
2021/09/07 06:29:43;;;;;;;3.83;1.48;;;15.60;99.90;;;;;;4375566;32;20071;-66
2021/09/07 06:32:09;;;;;;;4.00;1.27;;;15.60;99.90;;;;;;4375691;32;20136;-66
2021/09/07 06:34:34;;;;;;;2.47;0.77;;;15.70;99.90;;;;;;4374306;32;20081;-66
2021/09/07 06:37:00;;;;;;;1.52;0.90;;;15.70;99.90;;;;;;4373491;32;20069;-66
2021/09/07 06:39:28;;;;;;;1.35;0.93;;;15.90;99.90;;;;;;4375995;32;20107;-66
2021/09/07 06:41:54;;;;;;;1.85;0.77;;;15.90;99.90;;;;;;4374164;32;20098;-66
2021/09/07 06:44:19;;;;;;;19.23;1.25;;;16.00;99.90;;;;;;4374468;32;20093;-66
2021/09/07 06:46:45;;;;;;;2.75;1.10;;;16.00;99.90;;;;;;4375946;32;20113;-66
2021/09/07 06:49:11;;;;;;;1.90;0.98;;;16.10;99.90;;;;;;4376051;32;20066;-66
2021/09/07 06:51:36;;;;;;;7.37;1.12;;;16.20;99.90;;;;;;4372891;32;20769;-66
2021/09/07 06:54:02;;;;;;;2.47;0.62;;;16.30;99.90;;;;;;4369510;32;20238;-66
2021/09/07 06:56:27;;;;;;;0.77;0.75;;;16.40;99.90;;;;;;4369698;32;20121;-66
2021/09/07 06:58:53;;;;;;;1.00;0.40;;;16.40;99.90;;;;;;4366751;32;20086;-66
2021/09/07 07:01:19;;;;;;;1.25;1.10;;;16.50;99.90;;;;;;4370701;32;20090;-66
2021/09/07 07:03:45;;;;;;;1.65;0.93;;;16.60;99.90;;;;;;4369893;32;20083;-66
2021/09/07 07:06:10;;;;;;;0.68;0.68;;;16.60;99.90;;;;;;4371217;32;20089;-66
2021/09/07 07:08:36;;;;;;;11.00;1.10;;;16.60;99.90;;;;;;4369998;32;20094;-66
2021/09/07 07:11:01;;;;;;;1.37;0.65;;;16.60;99.90;;;;;;4371037;32;20527;-67
2021/09/07 07:13:27;;;;;;;3.62;0.68;;;16.70;99.90;;;;;;4371537;32;20102;-66
2021/09/07 07:15:52;;;;;;;0.50;0.47;;;16.80;99.90;;;;;;4372951;32;20082;-67
2021/09/07 07:18:18;;;;;;;1.98;0.90;;;16.90;99.90;;;;;;4369744;32;20063;-67
2021/09/07 07:20:44;;;;;;;1.30;0.95;;;16.90;99.90;;;;;;4374288;32;20122;-67
2021/09/07 07:23:09;;;;;;;1.02;0.88;;;17.00;99.90;;;;;;4376029;32;20082;-67
2021/09/07 07:25:35;;;;;;;3.25;0.90;;;17.20;99.90;;;;;;4371502;32;20105;-65
2021/09/07 07:28:01;;;;;;;0.80;0.43;;;17.20;99.90;;;;;;4374790;32;20450;-65
2021/09/07 07:30:27;;;;;;;1.35;1.23;;;17.20;99.90;;;;;;4370351;32;20153;-66
2021/09/07 07:32:54;;;;;;;0.70;0.70;;;17.30;99.90;;;;;;4373495;32;20188;-65
2021/09/07 07:35:19;;;;;;;0.50;0.50;;;17.40;99.90;;;;;;4364545;32;20837;-65
2021/09/07 07:37:45;;;;;;;0.77;0.68;;;17.30;99.90;;;;;;4372133;32;20070;-65
2021/09/07 07:40:11;;;;;;;1.87;0.60;;;17.40;99.90;;;;;;4371022;32;20137;-65
2021/09/07 07:42:36;;;;;;;0.65;0.65;;;17.50;99.90;;;;;;4372446;32;20429;-64
2021/09/07 07:45:02;;;;;;;1.75;1.02;;;17.60;99.90;;;;;;4375441;32;20107;-65
2021/09/07 07:47:27;;;;;;;1.20;0.80;;;17.70;99.90;;;;;;4368397;32;20130;-65
2021/09/07 07:49:53;;;;;;;0.65;0.65;;;17.70;99.90;;;;;;4369960;32;20095;-65
2021/09/07 07:52:19;;;;;;;1.08;0.98;;;17.80;99.90;;;;;;4366181;32;20173;-66
2021/09/07 07:54:46;;;;;;;3.95;1.27;;;17.80;99.90;;;;;;4361817;32;20102;-66
2021/09/07 07:57:11;;;;;;;0.50;0.50;;;17.80;99.90;;;;;;4361443;32;20087;-66
2021/09/07 07:59:37;;;;;;;0.40;0.40;;;17.90;99.90;;;;;;4367833;32;20089;-65
2021/09/07 08:02:03;;;;;;;11.07;1.85;;;18.00;99.90;;;;;;4366655;32;20094;-65
2021/09/07 08:04:28;;;;;;;1.90;1.27;;;18.00;99.90;;;;;;4370676;32;20077;-66
2021/09/07 08:06:54;;;;;;;0.95;0.90;;;18.10;99.90;;;;;;4372867;32;20488;-65
2021/09/07 08:09:19;;;;;;;3.10;0.93;;;18.10;99.90;;;;;;4371617;32;20093;-65
2021/09/07 08:11:44;;;;;;;2.33;0.75;;;18.20;99.90;;;;;;4368980;32;20094;-66
2021/09/07 08:14:10;;;;;;;1.02;0.68;;;18.30;99.90;;;;;;4379409;32;20089;-66
2021/09/07 08:16:36;;;;;;;0.52;0.52;;;18.30;99.90;;;;;;4374535;32;20421;-65
2021/09/07 08:19:01;;;;;;;3.22;1.17;;;18.40;99.90;;;;;;4376929;32;20117;-65
2021/09/07 08:21:28;;;;;;;2.28;0.68;;;18.50;99.90;;;;;;4375325;32;20081;-65
2021/09/07 08:23:55;;;;;;;0.82;0.82;;;18.60;99.90;;;;;;4374823;32;20757;-65
2021/09/07 08:26:20;;;;;;;2.95;1.33;;;18.70;99.90;;;;;;4363814;32;20153;-65
2021/09/07 08:28:46;;;;;;;0.40;0.40;;;18.80;99.90;;;;;;4377111;32;20098;-65
2021/09/07 08:31:11;;;;;;;0.52;0.50;;;18.90;99.90;;;;;;4373851;32;20398;-66
2021/09/07 08:33:37;;;;;;;0.50;0.50;;;18.90;99.90;;;;;;4378457;32;20090;-66
2021/09/07 08:36:02;;;;;;;1.55;1.02;;;19.00;99.90;;;;;;4369251;32;20724;-66
2021/09/07 08:38:30;;;;;;;0.62;0.62;;;19.00;99.90;;;;;;4376343;32;20389;-65
2021/09/07 08:40:56;;;;;;;1.85;0.88;;;19.10;99.90;;;;;;4375756;32;20109;-66
2021/09/07 08:43:23;;;;;;;2.87;1.00;;;19.20;99.90;;;;;;4369124;32;20145;-67
2021/09/07 08:45:53;;;;;;;0.68;0.60;;;19.20;99.90;;;;;;4370557;32;20231;-67
2021/09/07 08:48:21;;;;;;;1.65;0.73;;;19.30;99.90;;;;;;4372174;32;20367;-67
2021/09/07 08:50:47;;;;;;;1.75;0.82;;;19.30;99.90;;;;;;4370173;32;20078;-67
2021/09/07 08:53:12;;;;;;;0.75;0.50;;;19.40;99.90;;;;;;4372783;32;20413;-67
2021/09/07 08:55:38;;;;;;;0.35;0.35;;;19.40;99.90;;;;;;4369472;32;20090;-67
2021/09/07 08:58:30;;;;;;;0.60;0.60;;;19.50;99.90;;;;;;4372686;32;20134;-66
2021/09/07 09:00:56;;;;;;;0.60;0.60;;;19.60;99.90;;;;;;4370355;32;20078;-67
2021/09/07 09:03:21;;;;;;;4.87;1.17;;;19.70;99.90;;;;;;4368813;32;20442;-65
2021/09/07 09:05:50;;;;;;;1.40;0.77;;;19.80;99.90;;;;;;4374736;32;20070;-66
2021/09/07 09:08:17;;;;;;;2.85;0.80;;;19.80;99.90;;;;;;4364282;32;20098;-66
2021/09/07 09:10:44;;;;;;;1.73;0.62;;;19.80;99.90;;;;;;4369132;32;20105;-66
2021/09/07 09:13:13;;;;;;;3.25;1.73;;;19.90;99.90;;;;;;4375022;32;20121;-65
2021/09/07 09:15:39;;;;;;;1.27;0.65;;;20.00;99.90;;;;;;4373969;32;20071;-66
2021/09/07 09:18:08;;;;;;;0.70;0.70;;;20.00;99.90;;;;;;4373817;32;20078;-66
2021/09/07 09:20:34;;;;;;;1.12;0.73;;;20.00;99.90;;;;;;4368936;32;20066;-66
2021/09/07 09:23:01;;;;;;;0.65;0.65;;;20.00;99.90;;;;;;4373080;32;20138;-66
2021/09/07 09:25:43;;;;;;;0.70;0.60;;;20.00;99.90;;;;;;4373655;32;20099;-65
2021/09/07 09:28:13;;;;;;;0.70;0.60;;;20.10;99.90;;;;;;4362213;32;20087;-66
2021/09/07 09:30:43;;;;;;;0.90;0.68;;;20.20;99.90;;;;;;4368641;32;20183;-66
2021/09/07 09:33:11;;;;;;;1.17;0.65;;;20.30;99.90;;;;;;4367561;32;20099;-66
2021/09/07 09:35:45;;;;;;;0.55;0.47;;;20.50;99.90;;;;;;4364318;32;20512;-66
2021/09/07 09:38:11;;;;;;;1.60;0.90;;;20.60;99.90;;;;;;4369363;32;20178;-66
2021/09/07 09:40:36;;;;;;;0.55;0.55;;;20.60;99.90;;;;;;4370972;32;20204;-66
2021/09/07 09:43:23;;;;;;;2.72;0.85;;;20.80;99.90;;;;;;4368065;32;20074;-66
2021/09/07 09:45:49;;;;;;;2.80;1.48;;;20.90;99.90;;;;;;4372519;32;20403;-66
2021/09/07 09:48:31;;;;;;;0.88;0.75;;;21.00;99.90;;;;;;4374135;32;20105;-66
2021/09/07 09:50:58;;;;;;;1.05;0.95;;;21.20;99.90;;;;;;4368456;32;20071;-66
2021/09/07 09:53:26;;;;;;;0.32;0.32;;;21.30;99.90;;;;;;4373715;32;20102;-66
2021/09/07 09:55:53;;;;;;;0.35;0.35;;;21.50;99.90;;;;;;4374237;32;20091;-66
2021/09/07 09:58:20;;;;;;;3.60;1.42;;;21.60;99.90;;;;;;4373184;32;20263;-66
2021/09/07 10:00:47;;;;;;;2.05;0.93;;;21.80;99.90;;;;;;4370678;32;20079;-66
2021/09/07 10:03:14;;;;;;;0.45;0.45;;;21.70;99.90;;;;;;4373884;32;20499;-66
2021/09/07 10:05:41;;;;;;;2.67;0.77;;;21.50;99.90;;;;;;4378572;32;20414;-66
2021/09/07 10:08:11;;;;;;;0.52;0.52;;;21.10;99.90;;;;;;4373538;32;20071;-66
2021/09/07 10:10:40;;;;;;;0.55;0.55;;;21.10;99.90;;;;;;4371705;32;20507;-65
2021/09/07 10:13:08;;;;;;;1.27;0.60;;;21.30;99.90;;;;;;4371059;32;20090;-66
2021/09/07 10:15:44;;;;;;;0.80;0.75;;;21.60;99.90;;;;;;4369837;32;20075;-66
2021/09/07 10:18:33;;;;;;;1.12;1.05;;;21.70;99.90;;;;;;4371493;32;20484;-66
2021/09/07 10:26:45;;;;;;;0.43;0.37;;;21.90;99.90;;;;;;4380634;32;20081;-65
2021/09/07 10:29:17;;;;;;;0.50;0.50;;;21.80;99.90;;;;;;4374678;32;20083;-66
2021/09/07 10:31:47;;;;;;;1.55;0.95;;;22.00;99.90;;;;;;4377558;32;20063;-66
2021/09/07 10:34:13;;;;;;;7.40;1.67;;;22.20;99.90;;;;;;4370955;32;20089;-66
2021/09/07 10:37:04;;;;;;;1.02;0.80;;;22.30;99.90;;;;;;4371326;32;21919;-65
2021/09/07 10:39:35;;;;;;;2.35;1.23;;;22.60;99.90;;;;;;4374455;32;20090;-66
2021/09/07 10:42:05;;;;;;;0.93;0.68;;;22.60;99.90;;;;;;4375013;32;20079;-66
2021/09/07 10:44:33;;;;;;;1.35;0.93;;;22.30;99.90;;;;;;4375826;32;20204;-66
2021/09/07 10:47:01;;;;;;;1.00;0.47;;;22.10;99.90;;;;;;4377888;32;20148;-66
2021/09/07 10:49:37;;;;;;;0.80;0.62;;;21.80;99.90;;;;;;4379197;32;20069;-66
2021/09/07 10:52:09;;;;;;;0.80;0.50;;;22.10;99.90;;;;;;4375401;32;20090;-66
2021/09/07 10:54:41;;;;;;;1.55;1.12;;;22.60;99.90;;;;;;4373199;32;20099;-66
2021/09/07 10:57:08;;;;;;;2.28;1.20;;;23.00;99.90;;;;;;4366954;32;20087;-66
2021/09/07 10:59:50;;;;;;;2.40;1.15;;;23.00;99.90;;;;;;4361286;32;20078;-65
2021/09/07 11:02:38;;;;;;;10.40;0.88;;;22.90;99.90;;;;;;4368694;32;20110;-66
2021/09/07 11:05:05;;;;;;;0.77;0.40;;;22.80;99.90;;;;;;4367904;32;20083;-66
2021/09/07 11:07:48;;;;;;;3.65;0.90;;;22.80;99.90;;;;;;4368671;32;20098;-66
2021/09/07 11:10:17;;;;;;;1.75;0.52;;;22.90;99.90;;;;;;4369542;32;20073;-65
2021/09/07 11:12:55;;;;;;;0.30;0.30;;;23.10;99.90;;;;;;4371109;32;20669;-66
2021/09/07 11:15:24;;;;;;;0.40;0.40;;;23.30;99.90;;;;;;4368368;32;20074;-66
2021/09/07 11:18:00;;;;;;;0.47;0.43;;;23.40;99.90;;;;;;4369380;32;20082;-66
2021/09/07 11:20:30;;;;;;;0.35;0.35;;;23.70;99.90;;;;;;4366939;32;20734;-66
2021/09/07 11:22:57;;;;;;;0.52;0.20;;;23.90;99.90;;;;;;4368442;32;20066;-66
2021/09/07 11:25:24;;;;;;;0.73;0.60;;;24.10;99.90;;;;;;4369343;32;20201;-66
2021/09/07 11:27:56;;;;;;;0.30;0.30;;;24.30;99.90;;;;;;4371031;32;20086;-66
2021/09/07 11:30:38;;;;;;;0.43;0.43;;;24.50;99.90;;;;;;4367158;32;20533;-67
2021/09/07 11:33:15;;;;;;;0.35;0.35;;;24.30;99.90;;;;;;4373218;32;20174;-66
2021/09/07 11:35:45;;;;;;;1.10;0.82;;;24.10;99.90;;;;;;4374380;32;20091;-67
2021/09/07 11:38:13;;;;;;;0.28;0.28;;;23.70;99.90;;;;;;4372078;32;20473;-66
2021/09/07 11:40:43;;;;;;;0.20;0.20;;;23.40;99.90;;;;;;4373435;32;20532;-67
2021/09/07 11:43:08;;;;;;;0.43;0.43;;;23.30;99.90;;;;;;4376387;32;20126;-67
2021/09/07 11:45:34;;;;;;;0.73;0.50;;;23.30;99.90;;;;;;4378693;32;20450;-67
2021/09/07 11:48:02;;;;;;;0.52;0.40;;;23.30;99.90;;;;;;4374143;32;20122;-66
2021/09/07 11:50:31;;;;;;;2.47;0.28;;;23.20;99.90;;;;;;4377329;32;20387;-66
2021/09/07 11:52:59;;;;;;;2.08;1.10;;;23.10;99.90;;;;;;4380658;32;20071;-66
2021/09/07 11:55:47;;;;;;;23.83;0.98;;;22.80;99.90;;;;;;4381908;32;20113;-66
2021/09/07 11:58:34;;;;;;;1.08;0.60;;;22.60;99.90;;;;;;4378078;32;20407;-67
2021/09/07 12:01:03;;;;;;;0.75;0.40;;;22.70;99.90;;;;;;4366660;32;20125;-66
2021/09/07 12:03:51;;;;;;;0.70;0.60;;;23.10;99.90;;;;;;4377556;32;20523;-67
2021/09/07 12:06:29;;;;;;;2.53;1.40;;;23.70;99.90;;;;;;4368497;32;20075;-67
2021/09/07 12:08:55;;;;;;;0.37;0.37;;;24.20;99.90;;;;;;4376293;32;20095;-68
2021/09/07 12:11:29;;;;;;;0.50;0.50;;;24.10;99.90;;;;;;4379753;32;20070;-67
2021/09/07 12:14:14;;;;;;;0.40;0.40;;;23.60;99.90;;;;;;4379723;32;20130;-67
2021/09/07 12:16:53;;;;;;;0.57;0.43;;;23.30;99.90;;;;;;4383580;32;20503;-68
2021/09/07 12:19:30;;;;;;;3.08;1.15;;;22.90;99.90;;;;;;4377631;32;20082;-68
2021/09/07 12:22:16;;;;;;;0.40;0.40;;;22.60;99.90;;;;;;4380807;32;20141;-68
2021/09/07 12:24:57;;;;;;;0.40;0.40;;;22.60;99.90;;;;;;4382042;32;20093;-67
2021/09/07 12:27:25;;;;;;;0.62;0.43;;;23.00;99.90;;;;;;4371919;32;20093;-68
2021/09/07 12:30:13;;;;;;;0.55;0.30;;;23.70;99.90;;;;;;4372614;32;20108;-67
2021/09/07 12:33:01;;;;;;;0.35;0.35;;;24.30;99.90;;;;;;4367884;32;20086;-67
2021/09/07 12:35:54;;;;;;;1.10;0.45;;;24.10;99.90;;;;;;4378682;32;20090;-67
2021/09/07 12:38:23;;;;;;;1.67;0.52;;;23.80;99.90;;;;;;4373016;32;20150;-67
2021/09/07 12:40:52;;;;;;;0.40;0.40;;;23.40;99.90;;;;;;4375444;32;20082;-67
2021/09/07 12:43:21;;;;;;;0.30;0.30;;;22.90;99.90;;;;;;4366838;32;20173;-67
2021/09/07 12:45:50;;;;;;;0.68;0.57;;;22.60;99.90;;;;;;4375589;32;20187;-67
2021/09/07 12:48:16;;;;;;;0.55;0.43;;;22.80;99.90;;;;;;4378475;32;20098;-67
2021/09/07 12:50:43;;;;;;;0.98;0.75;;;23.30;99.90;;;;;;4376226;32;20094;-67
2021/09/07 12:53:09;;;;;;;0.70;0.50;;;24.00;99.90;;;;;;4382002;32;20078;-66